sensor_id;sensor_type;location;lat;lon;timestamp;pressure;altitude;pressure_sealevel;temperature;humidity
79709;BME280;69203;48.964;9.118;2023-05-07T00:00:21;98806.72;;;13.40;77.81
79709;BME280;69203;48.964;9.118;2023-05-07T00:01:21;98799.53;;;13.42;77.47
79709;BME280;69203;48.964;9.118;2023-05-07T00:02:22;98812.09;;;13.39;78.40
79709;BME280;69203;48.964;9.118;2023-05-07T00:03:22;98803.97;;;13.31;78.92
79709;BME280;69203;48.964;9.118;2023-05-07T00:04:23;98810.09;;;13.31;78.62
79709;BME280;69203;48.964;9.118;2023-05-07T00:05:23;98802.19;;;13.20;79.09
79709;BME280;69203;48.964;9.118;2023-05-07T00:06:24;98811.91;;;13.20;79.44
79709;BME280;69203;48.964;9.118;2023-05-07T00:07:26;98808.69;;;13.16;79.49
79709;BME280;69203;48.964;9.118;2023-05-07T00:08:26;98814.66;;;13.18;79.48
79709;BME280;69203;48.964;9.118;2023-05-07T00:09:27;98808.53;;;13.18;79.47
79709;BME280;69203;48.964;9.118;2023-05-07T00:10:28;98811.16;;;13.18;79.66
79709;BME280;69203;48.964;9.118;2023-05-07T00:11:29;98805.78;;;13.19;79.74
79709;BME280;69203;48.964;9.118;2023-05-07T00:12:29;98810.81;;;13.22;79.86
79709;BME280;69203;48.964;9.118;2023-05-07T00:13:33;98815.25;;;13.22;79.60
79709;BME280;69203;48.964;9.118;2023-05-07T00:14:35;98810.69;;;13.24;79.31
79709;BME280;69203;48.964;9.118;2023-05-07T00:15:35;98810.22;;;13.30;79.31
79709;BME280;69203;48.964;9.118;2023-05-07T00:16:36;98814.28;;;13.34;79.30
79709;BME280;69203;48.964;9.118;2023-05-07T00:17:37;98809.00;;;13.34;78.98
79709;BME280;69203;48.964;9.118;2023-05-07T00:18:37;98811.25;;;13.38;78.91
79709;BME280;69203;48.964;9.118;2023-05-07T00:19:37;98800.72;;;13.38;79.22
79709;BME280;69203;48.964;9.118;2023-05-07T00:20:38;98801.56;;;13.39;79.25
79709;BME280;69203;48.964;9.118;2023-05-07T00:21:38;98807.31;;;13.44;78.29
79709;BME280;69203;48.964;9.118;2023-05-07T00:22:39;98796.44;;;13.37;78.72
79709;BME280;69203;48.964;9.118;2023-05-07T00:23:39;98801.69;;;13.37;78.61
79709;BME280;69203;48.964;9.118;2023-05-07T00:24:39;98797.88;;;13.30;79.20
79709;BME280;69203;48.964;9.118;2023-05-07T00:25:40;98790.56;;;13.23;79.62
79709;BME280;69203;48.964;9.118;2023-05-07T00:26:40;98798.34;;;13.24;79.67
79709;BME280;69203;48.964;9.118;2023-05-07T00:27:41;98796.09;;;13.20;80.17
79709;BME280;69203;48.964;9.118;2023-05-07T00:28:41;98789.38;;;13.16;79.97
79709;BME280;69203;48.964;9.118;2023-05-07T00:29:41;98785.28;;;13.11;80.82
79709;BME280;69203;48.964;9.118;2023-05-07T00:30:42;98787.81;;;13.13;80.29
79709;BME280;69203;48.964;9.118;2023-05-07T00:31:42;98795.22;;;13.08;80.05
79709;BME280;69203;48.964;9.118;2023-05-07T00:32:42;98782.88;;;13.08;80.31
79709;BME280;69203;48.964;9.118;2023-05-07T00:33:45;98791.03;;;13.05;80.36
79709;BME280;69203;48.964;9.118;2023-05-07T00:34:45;98786.00;;;13.02;80.87
79709;BME280;69203;48.964;9.118;2023-05-07T00:35:46;98785.03;;;12.92;81.62
79709;BME280;69203;48.964;9.118;2023-05-07T00:36:46;98786.34;;;12.87;81.61
79709;BME280;69203;48.964;9.118;2023-05-07T00:37:47;98788.88;;;12.88;81.43
79709;BME280;69203;48.964;9.118;2023-05-07T00:38:48;98790.19;;;12.83;81.80
79709;BME280;69203;48.964;9.118;2023-05-07T00:39:48;98787.19;;;12.76;82.23
79709;BME280;69203;48.964;9.118;2023-05-07T00:40:49;98787.91;;;12.78;81.94
79709;BME280;69203;48.964;9.118;2023-05-07T00:41:50;98786.47;;;12.74;82.41
79709;BME280;69203;48.964;9.118;2023-05-07T00:42:51;98780.47;;;12.72;82.25
79709;BME280;69203;48.964;9.118;2023-05-07T00:43:53;98782.63;;;12.67;82.04
79709;BME280;69203;48.964;9.118;2023-05-07T00:44:53;98779.03;;;12.68;82.27
79709;BME280;69203;48.964;9.118;2023-05-07T00:45:55;98777.47;;;12.65;82.58
79709;BME280;69203;48.964;9.118;2023-05-07T00:46:57;98783.47;;;12.67;82.15
79709;BME280;69203;48.964;9.118;2023-05-07T00:47:59;98778.06;;;12.69;82.53
79709;BME280;69203;48.964;9.118;2023-05-07T00:49:00;98780.09;;;12.65;82.55
79709;BME280;69203;48.964;9.118;2023-05-07T00:50:01;98788.00;;;12.65;82.27
79709;BME280;69203;48.964;9.118;2023-05-07T00:51:01;98781.31;;;12.61;82.44
79709;BME280;69203;48.964;9.118;2023-05-07T00:52:01;98783.22;;;12.59;82.28
79709;BME280;69203;48.964;9.118;2023-05-07T00:53:02;98784.06;;;12.60;81.83
79709;BME280;69203;48.964;9.118;2023-05-07T00:54:02;98778.19;;;12.56;81.94
79709;BME280;69203;48.964;9.118;2023-05-07T00:55:05;98781.19;;;12.63;82.02
79709;BME280;69203;48.964;9.118;2023-05-07T00:56:06;98780.22;;;12.64;81.14
79709;BME280;69203;48.964;9.118;2023-05-07T00:57:09;98780.47;;;12.61;81.94
79709;BME280;69203;48.964;9.118;2023-05-07T00:58:09;98776.84;;;12.51;82.01
79709;BME280;69203;48.964;9.118;2023-05-07T00:59:10;98774.94;;;12.42;82.25
79709;BME280;69203;48.964;9.118;2023-05-07T01:00:11;98776.84;;;12.40;82.67
79709;BME280;69203;48.964;9.118;2023-05-07T01:01:12;98776.00;;;12.39;82.91
79709;BME280;69203;48.964;9.118;2023-05-07T01:02:13;98771.34;;;12.32;83.23
79709;BME280;69203;48.964;9.118;2023-05-07T01:03:13;98776.59;;;12.32;83.30
79709;BME280;69203;48.964;9.118;2023-05-07T01:04:13;98776.69;;;12.30;83.11
79709;BME280;69203;48.964;9.118;2023-05-07T01:05:15;98777.66;;;12.29;82.98
79709;BME280;69203;48.964;9.118;2023-05-07T01:06:18;98788.56;;;12.36;82.85
79709;BME280;69203;48.964;9.118;2023-05-07T01:07:19;98773.59;;;12.36;82.59
79709;BME280;69203;48.964;9.118;2023-05-07T01:08:20;98782.66;;;12.32;82.54
79709;BME280;69203;48.964;9.118;2023-05-07T01:09:23;98778.09;;;12.23;82.80
79709;BME280;69203;48.964;9.118;2023-05-07T01:10:24;98783.16;;;12.26;82.72
79709;BME280;69203;48.964;9.118;2023-05-07T01:11:25;98785.06;;;12.24;81.91
79709;BME280;69203;48.964;9.118;2023-05-07T01:12:26;98776.09;;;12.26;82.51
79709;BME280;69203;48.964;9.118;2023-05-07T01:13:28;98779.22;;;12.32;81.93
79709;BME280;69203;48.964;9.118;2023-05-07T01:14:28;98771.19;;;12.33;81.79
79709;BME280;69203;48.964;9.118;2023-05-07T01:15:29;98773.22;;;12.30;81.96
79709;BME280;69203;48.964;9.118;2023-05-07T01:16:30;98773.97;;;12.32;81.65
79709;BME280;69203;48.964;9.118;2023-05-07T01:17:35;98768.91;;;12.28;81.73
79709;BME280;69203;48.964;9.118;2023-05-07T01:18:36;98772.03;;;12.34;81.37
79709;BME280;69203;48.964;9.118;2023-05-07T01:19:36;98775.41;;;12.36;81.35
79709;BME280;69203;48.964;9.118;2023-05-07T01:20:37;98774.06;;;12.30;81.69
79709;BME280;69203;48.964;9.118;2023-05-07T01:21:38;98769.81;;;12.16;82.12
79709;BME280;69203;48.964;9.118;2023-05-07T01:22:39;98774.88;;;12.19;82.42
79709;BME280;69203;48.964;9.118;2023-05-07T01:23:40;98771.97;;;12.11;82.25
79709;BME280;69203;48.964;9.118;2023-05-07T01:24:41;98774.09;;;12.06;82.54
79709;BME280;69203;48.964;9.118;2023-05-07T01:25:42;98771.88;;;12.13;82.60
79709;BME280;69203;48.964;9.118;2023-05-07T01:26:43;98776.53;;;12.09;82.73
79709;BME280;69203;48.964;9.118;2023-05-07T01:27:44;98771.72;;;12.03;82.76
79709;BME280;69203;48.964;9.118;2023-05-07T01:28:45;98761.19;;;12.03;82.21
79709;BME280;69203;48.964;9.118;2023-05-07T01:29:46;98769.09;;;12.03;82.28
79709;BME280;69203;48.964;9.118;2023-05-07T01:30:51;98763.59;;;12.06;81.88
79709;BME280;69203;48.964;9.118;2023-05-07T01:31:52;98760.25;;;12.04;82.29
79709;BME280;69203;48.964;9.118;2023-05-07T01:33:09;98768.84;;;12.06;82.68
79709;BME280;69203;48.964;9.118;2023-05-07T01:34:11;98765.63;;;12.03;83.03
79709;BME280;69203;48.964;9.118;2023-05-07T01:35:18;98768.31;;;11.90;83.23
79709;BME280;69203;48.964;9.118;2023-05-07T01:36:22;98766.25;;;11.82;83.24
79709;BME280;69203;48.964;9.118;2023-05-07T01:37:24;98771.53;;;11.82;83.22
79709;BME280;69203;48.964;9.118;2023-05-07T01:38:26;98765.31;;;11.83;83.44
79709;BME280;69203;48.964;9.118;2023-05-07T01:39:28;98768.16;;;11.80;83.53
79709;BME280;69203;48.964;9.118;2023-05-07T01:40:29;98768.88;;;11.82;83.38
79709;BME280;69203;48.964;9.118;2023-05-07T01:41:30;98763.13;;;11.77;83.67
79709;BME280;69203;48.964;9.118;2023-05-07T01:42:31;98762.88;;;11.80;84.30
79709;BME280;69203;48.964;9.118;2023-05-07T01:43:31;98769.34;;;11.76;84.94
79709;BME280;69203;48.964;9.118;2023-05-07T01:44:32;98769.94;;;11.80;84.64
79709;BME280;69203;48.964;9.118;2023-05-07T01:45:34;98768.28;;;11.79;84.62
79709;BME280;69203;48.964;9.118;2023-05-07T01:46:34;98768.41;;;11.77;84.88
79709;BME280;69203;48.964;9.118;2023-05-07T01:47:39;98773.03;;;11.74;84.96
79709;BME280;69203;48.964;9.118;2023-05-07T01:48:40;98778.19;;;11.75;85.49
79709;BME280;69203;48.964;9.118;2023-05-07T01:49:41;98775.53;;;11.75;85.45
79709;BME280;69203;48.964;9.118;2023-05-07T01:50:43;98779.75;;;11.78;85.05
79709;BME280;69203;48.964;9.118;2023-05-07T01:51:44;98777.72;;;11.81;85.21
79709;BME280;69203;48.964;9.118;2023-05-07T01:52:45;98767.03;;;11.72;85.12
79709;BME280;69203;48.964;9.118;2023-05-07T01:53:46;98778.22;;;11.87;85.43
79709;BME280;69203;48.964;9.118;2023-05-07T01:54:50;98770.78;;;11.80;85.19
79709;BME280;69203;48.964;9.118;2023-05-07T01:55:51;98769.34;;;11.76;84.97
79709;BME280;69203;48.964;9.118;2023-05-07T01:56:51;98777.22;;;11.76;85.69
79709;BME280;69203;48.964;9.118;2023-05-07T01:57:51;98766.25;;;11.82;85.02
79709;BME280;69203;48.964;9.118;2023-05-07T01:58:52;98767.75;;;11.98;84.37
79709;BME280;69203;48.964;9.118;2023-05-07T01:59:52;98768.69;;;11.97;84.07
79709;BME280;69203;48.964;9.118;2023-05-07T02:00:53;98767.06;;;12.07;83.74
79709;BME280;69203;48.964;9.118;2023-05-07T02:01:53;98768.28;;;12.14;84.10
79709;BME280;69203;48.964;9.118;2023-05-07T02:02:53;98773.16;;;12.07;83.41
79709;BME280;69203;48.964;9.118;2023-05-07T02:03:54;98779.72;;;12.02;84.01
79709;BME280;69203;48.964;9.118;2023-05-07T02:04:54;98774.09;;;12.06;84.02
79709;BME280;69203;48.964;9.118;2023-05-07T02:05:55;98769.09;;;12.03;83.76
79709;BME280;69203;48.964;9.118;2023-05-07T02:06:56;98775.34;;;12.13;83.76
79709;BME280;69203;48.964;9.118;2023-05-07T02:07:56;98776.53;;;12.09;84.09
79709;BME280;69203;48.964;9.118;2023-05-07T02:08:56;98765.63;;;12.03;84.41
79709;BME280;69203;48.964;9.118;2023-05-07T02:09:57;98764.31;;;12.08;84.14
79709;BME280;69203;48.964;9.118;2023-05-07T02:10:57;98772.69;;;12.13;83.74
79709;BME280;69203;48.964;9.118;2023-05-07T02:11:58;98779.25;;;12.08;83.70
79709;BME280;69203;48.964;9.118;2023-05-07T02:12:58;98780.34;;;12.05;84.08
79709;BME280;69203;48.964;9.118;2023-05-07T02:14:01;98775.09;;;12.05;84.09
79709;BME280;69203;48.964;9.118;2023-05-07T02:15:02;98772.66;;;12.02;84.32
79709;BME280;69203;48.964;9.118;2023-05-07T02:16:03;98775.91;;;12.06;84.04
79709;BME280;69203;48.964;9.118;2023-05-07T02:17:03;98781.66;;;12.11;83.84
79709;BME280;69203;48.964;9.118;2023-05-07T02:18:08;98782.00;;;12.06;83.94
79709;BME280;69203;48.964;9.118;2023-05-07T02:19:12;98785.13;;;12.11;84.10
79709;BME280;69203;48.964;9.118;2023-05-07T02:20:12;98783.69;;;12.07;83.85
79709;BME280;69203;48.964;9.118;2023-05-07T02:21:13;98780.81;;;11.99;83.76
79709;BME280;69203;48.964;9.118;2023-05-07T02:22:13;98782.34;;;12.02;84.09
79709;BME280;69203;48.964;9.118;2023-05-07T02:23:14;98771.22;;;11.98;84.22
79709;BME280;69203;48.964;9.118;2023-05-07T02:24:14;98766.94;;;12.08;84.32
79709;BME280;69203;48.964;9.118;2023-05-07T02:25:15;98780.84;;;12.21;83.32
79709;BME280;69203;48.964;9.118;2023-05-07T02:26:15;98785.63;;;12.16;83.12
79709;BME280;69203;48.964;9.118;2023-05-07T02:27:16;98788.75;;;12.21;83.69
79709;BME280;69203;48.964;9.118;2023-05-07T02:28:16;98780.41;;;12.39;82.46
79709;BME280;69203;48.964;9.118;2023-05-07T02:29:16;98782.72;;;12.54;82.10
79709;BME280;69203;48.964;9.118;2023-05-07T02:30:17;98791.22;;;12.69;82.32
79709;BME280;69203;48.964;9.118;2023-05-07T02:31:17;98774.44;;;12.48;81.89
79709;BME280;69203;48.964;9.118;2023-05-07T02:32:18;98776.97;;;12.49;81.81
79709;BME280;69203;48.964;9.118;2023-05-07T02:33:18;98775.66;;;12.44;81.55
79709;BME280;69203;48.964;9.118;2023-05-07T02:34:19;98780.34;;;12.51;81.80
79709;BME280;69203;48.964;9.118;2023-05-07T02:35:19;98777.69;;;12.51;81.51
79709;BME280;69203;48.964;9.118;2023-05-07T02:36:20;98769.06;;;12.49;81.43
79709;BME280;69203;48.964;9.118;2023-05-07T02:37:20;98774.22;;;12.51;81.14
79709;BME280;69203;48.964;9.118;2023-05-07T02:38:22;98778.19;;;12.56;81.33
79709;BME280;69203;48.964;9.118;2023-05-07T02:39:25;98773.97;;;12.54;81.18
79709;BME280;69203;48.964;9.118;2023-05-07T02:40:25;98778.66;;;12.50;81.02
79709;BME280;69203;48.964;9.118;2023-05-07T02:41:26;98772.31;;;12.53;80.89
79709;BME280;69203;48.964;9.118;2023-05-07T02:42:28;98776.84;;;12.51;81.18
79709;BME280;69203;48.964;9.118;2023-05-07T02:43:28;98773.38;;;12.39;81.53
79709;BME280;69203;48.964;9.118;2023-05-07T02:44:29;98774.66;;;12.34;81.69
79709;BME280;69203;48.964;9.118;2023-05-07T02:45:32;98772.63;;;12.26;81.95
79709;BME280;69203;48.964;9.118;2023-05-07T02:46:33;98781.69;;;12.22;82.18
79709;BME280;69203;48.964;9.118;2023-05-07T02:47:33;98780.69;;;12.12;82.60
79709;BME280;69203;48.964;9.118;2023-05-07T02:48:34;98778.66;;;12.04;83.08
79709;BME280;69203;48.964;9.118;2023-05-07T02:49:35;98770.63;;;11.95;83.42
79709;BME280;69203;48.964;9.118;2023-05-07T02:50:35;98775.38;;;11.90;83.86
79709;BME280;69203;48.964;9.118;2023-05-07T02:51:35;98773.47;;;11.92;84.43
79709;BME280;69203;48.964;9.118;2023-05-07T02:52:36;98770.94;;;11.90;84.02
79709;BME280;69203;48.964;9.118;2023-05-07T02:53:37;98771.63;;;11.81;84.50
79709;BME280;69203;48.964;9.118;2023-05-07T02:54:37;98759.88;;;11.74;84.47
79709;BME280;69203;48.964;9.118;2023-05-07T02:55:37;98768.72;;;11.73;84.75
79709;BME280;69203;48.964;9.118;2023-05-07T02:56:38;98759.97;;;11.72;84.75
79709;BME280;69203;48.964;9.118;2023-05-07T02:57:41;98759.81;;;11.63;85.04
79709;BME280;69203;48.964;9.118;2023-05-07T02:58:41;98761.19;;;11.56;85.56
79709;BME280;69203;48.964;9.118;2023-05-07T02:59:42;98757.06;;;11.64;85.41
79709;BME280;69203;48.964;9.118;2023-05-07T03:00:43;98756.94;;;11.66;84.27
79709;BME280;69203;48.964;9.118;2023-05-07T03:01:43;98759.31;;;11.58;84.88
79709;BME280;69203;48.964;9.118;2023-05-07T03:02:45;98756.88;;;11.55;85.33
79709;BME280;69203;48.964;9.118;2023-05-07T03:03:45;98750.69;;;11.56;85.19
79709;BME280;69203;48.964;9.118;2023-05-07T03:04:46;98756.22;;;11.64;84.79
79709;BME280;69203;48.964;9.118;2023-05-07T03:05:46;98757.28;;;11.61;84.77
79709;BME280;69203;48.964;9.118;2023-05-07T03:06:47;98761.19;;;11.56;85.32
79709;BME280;69203;48.964;9.118;2023-05-07T03:07:47;98752.72;;;11.52;84.71
79709;BME280;69203;48.964;9.118;2023-05-07T03:08:48;98756.47;;;11.48;84.74
79709;BME280;69203;48.964;9.118;2023-05-07T03:09:48;98765.88;;;11.39;85.13
79709;BME280;69203;48.964;9.118;2023-05-07T03:10:48;98763.16;;;11.41;85.76
79709;BME280;69203;48.964;9.118;2023-05-07T03:11:49;98761.47;;;11.40;85.47
79709;BME280;69203;48.964;9.118;2023-05-07T03:12:49;98755.34;;;11.52;85.41
79709;BME280;69203;48.964;9.118;2023-05-07T03:13:50;98759.41;;;11.56;84.80
79709;BME280;69203;48.964;9.118;2023-05-07T03:14:50;98762.38;;;11.52;84.13
79709;BME280;69203;48.964;9.118;2023-05-07T03:15:50;98756.88;;;11.55;84.20
79709;BME280;69203;48.964;9.118;2023-05-07T03:16:51;98760.00;;;11.60;83.79
79709;BME280;69203;48.964;9.118;2023-05-07T03:17:51;98755.84;;;11.57;83.62
79709;BME280;69203;48.964;9.118;2023-05-07T03:18:51;98754.50;;;11.52;83.83
79709;BME280;69203;48.964;9.118;2023-05-07T03:19:52;98756.38;;;11.50;83.80
79709;BME280;69203;48.964;9.118;2023-05-07T03:20:52;98754.69;;;11.49;83.81
79709;BME280;69203;48.964;9.118;2023-05-07T03:21:54;98750.63;;;11.44;83.91
79709;BME280;69203;48.964;9.118;2023-05-07T03:22:55;98745.19;;;11.35;83.62
79709;BME280;69203;48.964;9.118;2023-05-07T03:23:56;98751.63;;;11.31;84.01
79709;BME280;69203;48.964;9.118;2023-05-07T03:24:56;98753.25;;;11.21;83.85
79709;BME280;69203;48.964;9.118;2023-05-07T03:25:56;98751.31;;;11.23;84.16
79709;BME280;69203;48.964;9.118;2023-05-07T03:26:57;98752.69;;;11.28;84.20
79709;BME280;69203;48.964;9.118;2023-05-07T03:27:57;98732.44;;;11.18;83.84
79709;BME280;69203;48.964;9.118;2023-05-07T03:28:58;98748.25;;;11.29;84.26
79709;BME280;69203;48.964;9.118;2023-05-07T03:29:59;98748.88;;;11.32;84.35
79709;BME280;69203;48.964;9.118;2023-05-07T03:31:00;98752.34;;;11.33;84.05
79709;BME280;69203;48.964;9.118;2023-05-07T03:32:00;98743.00;;;11.29;84.35
79709;BME280;69203;48.964;9.118;2023-05-07T03:33:01;98753.13;;;11.22;84.03
79709;BME280;69203;48.964;9.118;2023-05-07T03:34:01;98750.81;;;11.18;84.56
79709;BME280;69203;48.964;9.118;2023-05-07T03:35:02;98743.69;;;11.20;84.17
79709;BME280;69203;48.964;9.118;2023-05-07T03:36:02;98743.94;;;11.28;84.52
79709;BME280;69203;48.964;9.118;2023-05-07T03:37:03;98745.13;;;11.24;84.45
79709;BME280;69203;48.964;9.118;2023-05-07T03:38:03;98746.50;;;11.17;84.64
79709;BME280;69203;48.964;9.118;2023-05-07T03:39:04;98754.94;;;11.09;85.28
79709;BME280;69203;48.964;9.118;2023-05-07T03:40:05;98745.06;;;11.00;85.37
79709;BME280;69203;48.964;9.118;2023-05-07T03:41:06;98749.19;;;11.04;85.73
79709;BME280;69203;48.964;9.118;2023-05-07T03:42:06;98752.75;;;11.03;85.44
79709;BME280;69203;48.964;9.118;2023-05-07T03:43:07;98741.94;;;10.95;85.62
79709;BME280;69203;48.964;9.118;2023-05-07T03:44:07;98747.69;;;11.00;85.71
79709;BME280;69203;48.964;9.118;2023-05-07T03:45:08;98737.84;;;10.91;86.08
79709;BME280;69203;48.964;9.118;2023-05-07T03:46:09;98746.88;;;10.99;85.64
79709;BME280;69203;48.964;9.118;2023-05-07T03:47:09;98735.75;;;10.96;85.18
79709;BME280;69203;48.964;9.118;2023-05-07T03:48:10;98744.38;;;10.98;85.59
79709;BME280;69203;48.964;9.118;2023-05-07T03:49:10;98747.84;;;10.98;85.48
79709;BME280;69203;48.964;9.118;2023-05-07T03:50:11;98740.06;;;10.97;84.88
79709;BME280;69203;48.964;9.118;2023-05-07T03:51:11;98752.44;;;10.95;85.26
79709;BME280;69203;48.964;9.118;2023-05-07T03:52:11;98748.78;;;10.97;85.72
79709;BME280;69203;48.964;9.118;2023-05-07T03:53:12;98755.81;;;10.84;84.95
79709;BME280;69203;48.964;9.118;2023-05-07T03:54:12;98755.31;;;10.79;85.47
79709;BME280;69203;48.964;9.118;2023-05-07T03:55:13;98755.13;;;10.70;85.41
79709;BME280;69203;48.964;9.118;2023-05-07T03:56:13;98754.16;;;10.71;85.98
79709;BME280;69203;48.964;9.118;2023-05-07T03:57:14;98762.34;;;10.79;85.54
79709;BME280;69203;48.964;9.118;2023-05-07T03:58:14;98765.63;;;10.82;85.94
79709;BME280;69203;48.964;9.118;2023-05-07T03:59:15;98755.44;;;10.78;86.37
79709;BME280;69203;48.964;9.118;2023-05-07T04:00:16;98758.38;;;10.73;86.02
79709;BME280;69203;48.964;9.118;2023-05-07T04:01:16;98771.91;;;10.80;86.06
79709;BME280;69203;48.964;9.118;2023-05-07T04:02:17;98765.63;;;10.82;86.25
79709;BME280;69203;48.964;9.118;2023-05-07T04:03:17;98771.38;;;10.75;85.93
79709;BME280;69203;48.964;9.118;2023-05-07T04:04:17;98762.69;;;10.62;86.00
79709;BME280;69203;48.964;9.118;2023-05-07T04:05:18;98767.06;;;10.74;86.43
79709;BME280;69203;48.964;9.118;2023-05-07T04:06:18;98765.09;;;10.65;85.91
79709;BME280;69203;48.964;9.118;2023-05-07T04:07:19;98771.81;;;10.69;86.67
79709;BME280;69203;48.964;9.118;2023-05-07T04:08:19;98769.59;;;10.75;86.21
79709;BME280;69203;48.964;9.118;2023-05-07T04:09:19;98771.47;;;10.86;86.28
79709;BME280;69203;48.964;9.118;2023-05-07T04:10:20;98765.38;;;10.85;85.69
79709;BME280;69203;48.964;9.118;2023-05-07T04:11:20;98769.59;;;10.88;85.70
79709;BME280;69203;48.964;9.118;2023-05-07T04:12:21;98778.19;;;10.90;85.93
79709;BME280;69203;48.964;9.118;2023-05-07T04:13:22;98764.88;;;10.93;85.82
79709;BME280;69203;48.964;9.118;2023-05-07T04:14:22;98772.41;;;10.97;86.44
79709;BME280;69203;48.964;9.118;2023-05-07T04:15:23;98773.03;;;11.01;86.18
79709;BME280;69203;48.964;9.118;2023-05-07T04:16:24;98765.38;;;10.98;86.07
79709;BME280;69203;48.964;9.118;2023-05-07T04:17:24;98776.41;;;11.03;86.44
79709;BME280;69203;48.964;9.118;2023-05-07T04:18:25;98779.09;;;11.14;86.51
79709;BME280;69203;48.964;9.118;2023-05-07T04:19:25;98776.91;;;11.21;85.76
79709;BME280;69203;48.964;9.118;2023-05-07T04:20:25;98779.53;;;11.21;85.69
79709;BME280;69203;48.964;9.118;2023-05-07T04:21:26;98775.81;;;11.23;85.52
79709;BME280;69203;48.964;9.118;2023-05-07T04:22:27;98786.84;;;11.28;85.62
79709;BME280;69203;48.964;9.118;2023-05-07T04:23:27;98768.00;;;11.34;85.32
79709;BME280;69203;48.964;9.118;2023-05-07T04:24:31;98784.25;;;11.52;84.60
79709;BME280;69203;48.964;9.118;2023-05-07T04:25:32;98773.16;;;11.60;84.33
79709;BME280;69203;48.964;9.118;2023-05-07T04:26:33;98784.19;;;11.65;83.67
79709;BME280;69203;48.964;9.118;2023-05-07T04:27:33;98777.91;;;11.55;84.53
79709;BME280;69203;48.964;9.118;2023-05-07T04:28:34;98784.03;;;11.55;83.90
79709;BME280;69203;48.964;9.118;2023-05-07T04:29:35;98771.63;;;11.57;83.97
79709;BME280;69203;48.964;9.118;2023-05-07T04:30:35;98778.72;;;11.68;83.47
79709;BME280;69203;48.964;9.118;2023-05-07T04:31:36;98781.31;;;11.80;83.41
79709;BME280;69203;48.964;9.118;2023-05-07T04:32:36;98775.53;;;11.75;83.34
79709;BME280;69203;48.964;9.118;2023-05-07T04:33:38;98781.19;;;11.82;83.13
79709;BME280;69203;48.964;9.118;2023-05-07T04:34:39;98776.50;;;11.74;83.04
79709;BME280;69203;48.964;9.118;2023-05-07T04:35:39;98789.53;;;11.76;83.16
79709;BME280;69203;48.964;9.118;2023-05-07T04:36:40;98773.13;;;11.72;83.28
79709;BME280;69203;48.964;9.118;2023-05-07T04:37:40;98777.84;;;11.80;82.81
79709;BME280;69203;48.964;9.118;2023-05-07T04:38:41;98785.66;;;11.93;82.65
79709;BME280;69203;48.964;9.118;2023-05-07T04:39:41;98782.13;;;12.05;82.55
79709;BME280;69203;48.964;9.118;2023-05-07T04:40:42;98785.16;;;12.22;82.09
79709;BME280;69203;48.964;9.118;2023-05-07T04:41:42;98789.13;;;12.28;81.77
79709;BME280;69203;48.964;9.118;2023-05-07T04:42:43;98790.75;;;12.42;82.35
79709;BME280;69203;48.964;9.118;2023-05-07T04:43:43;98796.97;;;12.52;82.05
79709;BME280;69203;48.964;9.118;2023-05-07T04:44:44;98787.50;;;12.49;81.30
79709;BME280;69203;48.964;9.118;2023-05-07T04:45:45;98791.94;;;12.60;81.78
79709;BME280;69203;48.964;9.118;2023-05-07T04:46:46;98800.81;;;12.70;81.34
79709;BME280;69203;48.964;9.118;2023-05-07T04:47:46;98804.31;;;12.82;81.68
79709;BME280;69203;48.964;9.118;2023-05-07T04:48:47;98800.00;;;12.92;81.50
79709;BME280;69203;48.964;9.118;2023-05-07T04:49:47;98796.91;;;12.98;80.97
79709;BME280;69203;48.964;9.118;2023-05-07T04:50:49;98802.16;;;13.09;80.94
79709;BME280;69203;48.964;9.118;2023-05-07T04:51:49;98801.94;;;13.12;80.48
79709;BME280;69203;48.964;9.118;2023-05-07T04:52:50;98810.31;;;13.17;79.52
79709;BME280;69203;48.964;9.118;2023-05-07T04:53:50;98801.09;;;13.23;80.63
79709;BME280;69203;48.964;9.118;2023-05-07T04:54:51;98805.53;;;13.33;80.54
79709;BME280;69203;48.964;9.118;2023-05-07T04:55:55;98806.47;;;13.43;81.52
79709;BME280;69203;48.964;9.118;2023-05-07T04:56:56;98794.97;;;13.44;81.10
79709;BME280;69203;48.964;9.118;2023-05-07T04:57:57;98808.25;;;13.54;81.26
79709;BME280;69203;48.964;9.118;2023-05-07T04:58:57;98806.34;;;13.56;80.86
79709;BME280;69203;48.964;9.118;2023-05-07T04:59:58;98803.31;;;13.61;81.57
79709;BME280;69203;48.964;9.118;2023-05-07T05:00:59;98803.91;;;13.64;81.00
79709;BME280;69203;48.964;9.118;2023-05-07T05:02:00;98809.16;;;13.75;81.78
79709;BME280;69203;48.964;9.118;2023-05-07T05:03:01;98800.63;;;13.83;81.39
79709;BME280;69203;48.964;9.118;2023-05-07T05:04:01;98805.63;;;13.86;81.39
79709;BME280;69203;48.964;9.118;2023-05-07T05:05:02;98804.19;;;13.93;80.39
79709;BME280;69203;48.964;9.118;2023-05-07T05:06:02;98802.13;;;13.96;79.92
79709;BME280;69203;48.964;9.118;2023-05-07T05:07:03;98805.75;;;13.95;80.22
79709;BME280;69203;48.964;9.118;2023-05-07T05:08:04;98806.25;;;13.89;79.03
79709;BME280;69203;48.964;9.118;2023-05-07T05:09:04;98817.38;;;13.93;79.14
79709;BME280;69203;48.964;9.118;2023-05-07T05:10:05;98815.47;;;13.95;79.35
79709;BME280;69203;48.964;9.118;2023-05-07T05:11:06;98814.00;;;13.91;79.64
79709;BME280;69203;48.964;9.118;2023-05-07T05:12:06;98803.09;;;13.95;80.34
79709;BME280;69203;48.964;9.118;2023-05-07T05:13:07;98821.06;;;14.02;80.05
79709;BME280;69203;48.964;9.118;2023-05-07T05:14:08;98811.09;;;14.05;79.55
79709;BME280;69203;48.964;9.118;2023-05-07T05:15:11;98806.66;;;14.06;79.31
79709;BME280;69203;48.964;9.118;2023-05-07T05:16:11;98815.03;;;14.11;79.04
79709;BME280;69203;48.964;9.118;2023-05-07T05:17:12;98814.66;;;14.15;78.45
79709;BME280;69203;48.964;9.118;2023-05-07T05:18:12;98816.47;;;14.15;78.42
79709;BME280;69203;48.964;9.118;2023-05-07T05:19:13;98813.81;;;14.15;78.06
79709;BME280;69203;48.964;9.118;2023-05-07T05:20:13;98816.56;;;14.13;77.92
79709;BME280;69203;48.964;9.118;2023-05-07T05:21:14;98816.47;;;14.15;77.58
79709;BME280;69203;48.964;9.118;2023-05-07T05:22:14;98810.00;;;14.08;77.56